Time;durP1;ratioP1;P1;durP2;ratioP2;P2;SDS_P1;SDS_P2;PMS_P1;PMS_P2;Temp;Humidity;BMP_temperature;BMP_pressure;BME280_temperature;BME280_humidity;BME280_pressure;Samples;Min_cycle;Max_cycle;Signal;HPM_P1;HPM_P2
2022/05/10 05:00:16;;;;;;;12.47;11.40;;;14.60;97.20;;;;;;1720776;28;20223;-75
2022/05/10 05:01:08;;;;;;;13.10;12.10;;;14.60;97.20;;;;;;1720793;28;20661;-75
2022/05/10 05:02:00;;;;;;;12.55;11.50;;;14.60;97.20;;;;;;1720705;28;20679;-75
2022/05/10 05:02:51;;;;;;;13.52;12.50;;;14.70;97.20;;;;;;1720793;28;20232;-75
2022/05/10 05:03:44;;;;;;;13.40;12.30;;;14.70;97.20;;;;;;1720793;28;20224;-75
2022/05/10 05:04:35;;;;;;;12.38;11.40;;;14.70;97.20;;;;;;1720640;28;20201;-75
2022/05/10 05:05:27;;;;;;;13.70;12.67;;;14.80;97.20;;;;;;1720720;28;20211;-75
2022/05/10 05:06:18;;;;;;;12.65;11.75;;;14.80;97.20;;;;;;1720756;28;20201;-75
2022/05/10 05:07:10;;;;;;;12.52;11.52;;;14.80;97.20;;;;;;1720699;28;20720;-75
2022/05/10 05:08:01;;;;;;;11.82;10.93;;;14.90;97.20;;;;;;1720661;28;20319;-75
2022/05/10 05:08:53;;;;;;;11.90;11.00;;;14.90;97.20;;;;;;1719795;28;20213;-75
2022/05/10 05:09:44;;;;;;;12.23;11.35;;;14.90;97.20;;;;;;1720461;28;20463;-75
2022/05/10 05:10:35;;;;;;;12.67;11.67;;;15.00;97.20;;;;;;1720598;28;20203;-75
2022/05/10 05:11:26;;;;;;;13.32;12.25;;;15.00;97.20;;;;;;1720686;28;20228;-76
2022/05/10 05:12:18;;;;;;;13.10;12.10;;;15.10;97.20;;;;;;1720562;28;20197;-75
2022/05/10 05:13:09;;;;;;;12.02;11.15;;;15.10;97.20;;;;;;1720447;28;20459;-75
2022/05/10 05:14:00;;;;;;;13.03;12.03;;;15.10;97.20;;;;;;1720681;28;20204;-75
2022/05/10 05:14:51;;;;;;;12.45;11.55;;;15.20;97.20;;;;;;1720736;28;20683;-75
2022/05/10 05:15:44;;;;;;;12.70;11.73;;;15.20;97.20;;;;;;1720609;28;20632;-75
2022/05/10 05:16:35;;;;;;;12.48;11.45;;;15.20;97.20;;;;;;1720583;28;20208;-75
2022/05/10 05:17:27;;;;;;;13.30;12.00;;;15.20;97.20;;;;;;1719962;28;20239;-76
2022/05/10 05:18:17;;;;;;;12.43;11.35;;;15.20;97.20;;;;;;1717777;28;20204;-77
2022/05/10 05:19:09;;;;;;;12.97;11.97;;;15.20;97.20;;;;;;1713825;28;20202;-76
2022/05/10 05:20:00;;;;;;;13.18;12.07;;;15.30;97.20;;;;;;1718752;28;20197;-76
2022/05/10 05:20:52;;;;;;;12.27;11.17;;;15.30;97.20;;;;;;1720532;28;20193;-76
2022/05/10 05:21:43;;;;;;;13.00;11.95;;;15.30;97.20;;;;;;1720541;28;20474;-76
2022/05/10 05:22:35;;;;;;;12.30;11.30;;;15.40;97.20;;;;;;1720765;28;20227;-77
2022/05/10 05:23:25;;;;;;;12.85;11.95;;;15.40;97.20;;;;;;1720000;28;20204;-77
2022/05/10 05:24:17;;;;;;;16.97;13.00;;;15.40;97.20;;;;;;1713913;28;20202;-76
2022/05/10 05:25:08;;;;;;;13.75;12.57;;;15.50;97.20;;;;;;1716751;28;20240;-77
2022/05/10 05:26:00;;;;;;;12.98;11.90;;;15.50;97.20;;;;;;1720724;28;20279;-77
2022/05/10 05:26:52;;;;;;;12.40;11.40;;;15.50;97.20;;;;;;1720535;28;20239;-76
2022/05/10 05:27:44;;;;;;;13.52;12.43;;;15.50;97.20;;;;;;1720620;28;20204;-76
2022/05/10 05:28:35;;;;;;;13.07;12.00;;;15.50;97.20;;;;;;1720200;28;20228;-76
2022/05/10 05:29:27;;;;;;;13.07;11.93;;;15.60;97.20;;;;;;1720585;28;20248;-76
2022/05/10 05:30:18;;;;;;;13.95;12.75;;;15.60;97.20;;;;;;1720518;28;20538;-76
2022/05/10 05:31:13;;;;;;;12.23;11.30;;;15.60;97.20;;;;;;1720667;28;20209;-76
2022/05/10 05:32:08;;;;;;;13.70;12.65;;;15.70;97.20;;;;;;1720556;28;20255;-76
2022/05/10 05:32:59;;;;;;;13.30;12.27;;;15.70;97.20;;;;;;1720696;28;20208;-76
2022/05/10 05:33:51;;;;;;;13.35;12.35;;;15.70;97.20;;;;;;1720688;28;20208;-76
2022/05/10 05:34:42;;;;;;;12.90;11.90;;;15.80;97.20;;;;;;1722034;28;20796;-76
2022/05/10 05:35:34;;;;;;;13.90;12.70;;;15.80;97.20;;;;;;1722061;28;20670;-76
2022/05/10 05:36:25;;;;;;;13.50;12.25;;;15.90;97.20;;;;;;1721983;28;20224;-76
2022/05/10 05:38:24;;;;;;;12.05;11.15;;;16.00;97.20;;;;;;1720593;28;20428;-76
2022/05/10 05:39:14;;;;;;;13.18;12.05;;;16.00;97.20;;;;;;1722004;28;20288;-75
2022/05/10 05:40:09;;;;;;;12.37;11.37;;;16.00;97.20;;;;;;1721903;28;20231;-76
2022/05/10 05:41:01;;;;;;;13.15;12.15;;;16.10;97.20;;;;;;1721969;28;20208;-75
2022/05/10 05:41:53;;;;;;;13.93;12.60;;;16.10;97.20;;;;;;1715212;28;20198;-76
2022/05/10 05:42:44;;;;;;;13.98;12.88;;;16.10;97.20;;;;;;1715262;28;20233;-76
2022/05/10 05:43:36;;;;;;;14.07;12.73;;;16.20;97.20;;;;;;1715250;28;20209;-76
2022/05/10 05:44:27;;;;;;;14.40;13.10;;;16.20;97.20;;;;;;1715171;28;20213;-75
2022/05/10 05:45:22;;;;;;;13.77;12.60;;;16.20;97.20;;;;;;1715300;28;20198;-75
2022/05/10 05:46:15;;;;;;;12.90;11.93;;;16.30;97.20;;;;;;1715329;28;20208;-75
2022/05/10 05:47:06;;;;;;;14.27;13.07;;;16.30;97.20;;;;;;1715023;28;20245;-75
2022/05/10 05:47:58;;;;;;;13.50;12.50;;;16.30;97.20;;;;;;1715050;28;20218;-76
2022/05/10 05:48:48;;;;;;;13.65;12.50;;;16.30;97.20;;;;;;1714831;28;20876;-75
2022/05/10 05:49:40;;;;;;;13.50;12.40;;;16.30;97.20;;;;;;1714970;28;20206;-75
2022/05/10 05:50:31;;;;;;;14.38;13.27;;;16.30;97.20;;;;;;1715004;28;20269;-75
2022/05/10 05:51:23;;;;;;;14.90;13.60;;;16.30;97.20;;;;;;1715051;28;20225;-75
2022/05/10 05:52:17;;;;;;;13.70;12.48;;;16.30;97.20;;;;;;1715001;28;20210;-75
2022/05/10 05:53:09;;;;;;;13.68;12.55;;;16.30;97.20;;;;;;1717200;28;20736;-75
2022/05/10 05:54:00;;;;;;;13.35;12.13;;;16.30;97.20;;;;;;1714974;28;20202;-75
2022/05/10 05:54:53;;;;;;;14.30;13.10;;;16.40;97.20;;;;;;1714920;28;20240;-74
2022/05/10 05:55:47;;;;;;;13.63;12.43;;;16.40;97.20;;;;;;1715043;28;20206;-75
2022/05/10 05:56:39;;;;;;;12.55;11.45;;;16.40;97.20;;;;;;1714748;28;20233;-75
2022/05/10 05:57:29;;;;;;;13.02;12.02;;;16.40;97.20;;;;;;1715084;28;20273;-75
2022/05/10 05:58:21;;;;;;;13.70;12.50;;;16.50;97.20;;;;;;1714734;28;20209;-75
2022/05/10 05:59:12;;;;;;;13.25;12.20;;;16.50;97.20;;;;;;1721125;28;20456;-75
2022/05/10 06:00:07;;;;;;;13.53;12.53;;;16.50;97.20;;;;;;1721559;28;20193;-75
2022/05/10 06:00:58;;;;;;;13.02;11.95;;;16.60;97.20;;;;;;1721645;28;20209;-75
2022/05/10 06:01:51;;;;;;;14.23;13.03;;;16.60;97.20;;;;;;1721307;28;20312;-75
2022/05/10 06:02:42;;;;;;;13.60;12.57;;;16.60;97.20;;;;;;1721570;28;20666;-75
2022/05/10 06:03:35;;;;;;;13.63;12.52;;;16.60;97.20;;;;;;1721603;28;20255;-75
2022/05/10 06:04:26;;;;;;;13.60;12.50;;;16.60;97.20;;;;;;1721576;28;20205;-75
2022/05/10 06:05:18;;;;;;;12.80;11.60;;;16.70;97.20;;;;;;1721604;28;20201;-75
2022/05/10 06:06:11;;;;;;;12.98;12.00;;;16.70;97.20;;;;;;1721631;28;20661;-75
2022/05/10 06:07:02;;;;;;;12.98;11.73;;;16.70;97.20;;;;;;1721454;28;20217;-75
2022/05/10 06:07:53;;;;;;;13.10;12.10;;;16.80;97.20;;;;;;1721629;28;20201;-75
2022/05/10 06:08:45;;;;;;;13.57;12.47;;;16.80;97.20;;;;;;1721289;28;20212;-75
2022/05/10 06:09:36;;;;;;;14.02;12.80;;;16.80;97.20;;;;;;1721455;28;20224;-75
2022/05/10 06:10:28;;;;;;;13.10;12.10;;;16.80;97.20;;;;;;1721587;28;20219;-75
2022/05/10 06:11:19;;;;;;;13.68;12.57;;;16.80;97.20;;;;;;1721460;28;20687;-75
2022/05/10 06:12:12;;;;;;;12.53;11.53;;;16.90;97.20;;;;;;1721508;28;20197;-75
2022/05/10 06:13:03;;;;;;;14.02;12.82;;;16.90;97.20;;;;;;1721645;28;20209;-74
2022/05/10 06:13:55;;;;;;;13.63;12.52;;;16.90;97.20;;;;;;1721727;28;20442;-75
2022/05/10 06:14:47;;;;;;;13.52;12.32;;;16.90;97.20;;;;;;1721603;28;20287;-75
2022/05/10 06:15:39;;;;;;;13.70;12.45;;;17.00;97.20;;;;;;1721151;28;20280;-75
2022/05/10 06:16:29;;;;;;;13.80;12.70;;;17.00;97.20;;;;;;1721471;28;20221;-75
2022/05/10 06:17:23;;;;;;;14.17;12.87;;;17.00;97.20;;;;;;1720431;28;20231;-75
2022/05/10 06:18:15;;;;;;;12.25;11.15;;;17.00;97.20;;;;;;1719849;28;20301;-74
2022/05/10 06:19:06;;;;;;;14.07;12.77;;;17.00;97.20;;;;;;1724599;28;20209;-75
2022/05/10 06:19:58;;;;;;;13.20;12.10;;;17.00;97.20;;;;;;1725481;28;20292;-75
2022/05/10 06:20:49;;;;;;;13.45;12.35;;;17.10;97.20;;;;;;1727364;28;20224;-75
2022/05/10 06:21:41;;;;;;;13.05;12.00;;;17.10;97.20;;;;;;1721613;28;20205;-75
2022/05/10 06:22:33;;;;;;;12.32;11.32;;;17.10;97.20;;;;;;1714873;28;20208;-75
2022/05/10 06:23:24;;;;;;;13.07;11.98;;;17.20;97.20;;;;;;1720212;28;20677;-75
2022/05/10 06:24:15;;;;;;;12.50;11.60;;;17.20;97.20;;;;;;1724062;28;20705;-75
2022/05/10 06:25:07;;;;;;;13.55;12.25;;;17.30;97.20;;;;;;1717189;28;20300;-75
2022/05/10 06:25:59;;;;;;;12.95;11.95;;;17.30;97.20;;;;;;1714164;28;20261;-74
2022/05/10 06:26:50;;;;;;;12.35;11.15;;;17.40;97.20;;;;;;1714646;28;20198;-74
2022/05/10 06:27:42;;;;;;;13.73;12.63;;;17.50;97.20;;;;;;1714884;28;20214;-74
2022/05/10 06:28:33;;;;;;;13.27;12.23;;;17.50;97.20;;;;;;1714590;28;20209;-74
2022/05/10 06:29:24;;;;;;;12.53;11.20;;;17.60;97.20;;;;;;1714857;28;20285;-75
2022/05/10 06:30:16;;;;;;;12.40;11.45;;;17.60;97.20;;;;;;1714794;28;20244;-74
2022/05/10 06:31:10;;;;;;;12.48;11.48;;;17.60;97.20;;;;;;1714869;28;20205;-75
2022/05/10 06:32:00;;;;;;;12.80;11.80;;;17.60;97.20;;;;;;1714912;28;20229;-73
2022/05/10 06:32:56;;;;;;;12.57;11.57;;;17.70;97.20;;;;;;1720240;28;20189;-75
2022/05/10 06:33:47;;;;;;;13.15;12.00;;;17.70;97.20;;;;;;1721695;28;20205;-75
2022/05/10 06:34:42;;;;;;;13.03;11.93;;;17.80;97.20;;;;;;1721639;28;20199;-74
2022/05/10 06:35:32;;;;;;;12.70;11.60;;;17.80;97.20;;;;;;1721625;28;20201;-75
2022/05/10 06:36:24;;;;;;;12.87;11.87;;;17.80;97.20;;;;;;1721445;28;20205;-75
2022/05/10 06:38:27;;;;;;;12.52;11.43;;;17.90;97.20;;;;;;1720388;28;20193;-75
2022/05/10 06:39:18;;;;;;;13.25;12.25;;;17.90;97.20;;;;;;1721170;28;20227;-75
2022/05/10 06:40:11;;;;;;;11.75;10.90;;;17.90;97.20;;;;;;1721431;28;20205;-75
2022/05/10 06:41:04;;;;;;;12.52;11.63;;;17.90;97.20;;;;;;1721302;28;20219;-75
2022/05/10 06:41:55;;;;;;;11.82;10.82;;;18.00;97.20;;;;;;1721328;28;20248;-75
2022/05/10 06:42:47;;;;;;;12.40;11.43;;;18.00;97.20;;;;;;1721576;28;20657;-75
2022/05/10 06:43:38;;;;;;;13.27;12.07;;;18.00;97.20;;;;;;1721588;28;20202;-75
2022/05/10 06:44:30;;;;;;;11.60;10.80;;;18.00;97.20;;;;;;1721660;28;20297;-75
2022/05/10 06:45:21;;;;;;;11.98;11.02;;;18.10;97.20;;;;;;1720908;28;20456;-75
2022/05/10 06:46:15;;;;;;;12.40;11.40;;;18.10;97.20;;;;;;1721624;28;20204;-75
2022/05/10 06:47:07;;;;;;;12.95;11.88;;;18.20;97.20;;;;;;1721464;28;20237;-75
2022/05/10 06:48:01;;;;;;;12.30;11.30;;;18.20;97.20;;;;;;1721296;28;20612;-75
2022/05/10 06:48:52;;;;;;;11.70;10.57;;;18.30;97.20;;;;;;1720859;28;20818;-75
2022/05/10 06:49:44;;;;;;;11.73;10.82;;;18.30;97.20;;;;;;1721286;28;20665;-75
2022/05/10 06:50:36;;;;;;;12.35;11.30;;;18.40;97.20;;;;;;1721403;28;20205;-75
2022/05/10 06:51:28;;;;;;;11.38;10.48;;;18.50;97.20;;;;;;1721378;28;20201;-75
2022/05/10 06:52:19;;;;;;;12.68;11.68;;;18.50;97.20;;;;;;1721361;28;20232;-75
2022/05/10 06:53:12;;;;;;;11.30;10.30;;;18.50;97.20;;;;;;1721427;28;20212;-75
2022/05/10 06:54:04;;;;;;;12.77;11.77;;;18.60;97.20;;;;;;1721438;28;20205;-75
2022/05/10 06:54:55;;;;;;;12.30;11.15;;;18.60;97.20;;;;;;1721329;28;20229;-74
2022/05/10 06:55:47;;;;;;;11.82;10.63;;;18.70;97.20;;;;;;1721544;28;20664;-75
2022/05/10 06:56:38;;;;;;;11.40;10.50;;;18.70;97.20;;;;;;1721474;28;20204;-75
2022/05/10 06:57:30;;;;;;;12.20;11.10;;;18.80;97.20;;;;;;1721755;28;20236;-75
2022/05/10 06:58:21;;;;;;;11.68;10.68;;;18.80;97.20;;;;;;1721183;28;20205;-75
2022/05/10 06:59:12;;;;;;;11.88;10.77;;;18.90;97.20;;;;;;1721547;28;20212;-75
2022/05/10 07:00:05;;;;;;;12.10;11.10;;;18.90;97.20;;;;;;1720944;28;20193;-75
2022/05/10 07:00:56;;;;;;;11.43;10.43;;;19.00;97.20;;;;;;1714724;28;20229;-75
2022/05/10 07:01:47;;;;;;;11.23;10.23;;;19.00;97.20;;;;;;1714564;28;20202;-75
2022/05/10 07:02:38;;;;;;;11.50;10.60;;;19.10;97.20;;;;;;1714715;28;20690;-75
2022/05/10 07:03:33;;;;;;;10.80;9.97;;;19.10;97.20;;;;;;1714886;28;20687;-75
2022/05/10 07:04:24;;;;;;;12.85;11.65;;;19.20;97.20;;;;;;1714837;28;20968;-75
2022/05/10 07:05:17;;;;;;;11.93;10.93;;;19.20;97.20;;;;;;1714830;28;20575;-75
2022/05/10 07:06:12;;;;;;;11.27;10.35;;;19.30;97.20;;;;;;1714906;28;20768;-75
2022/05/10 07:07:03;;;;;;;11.55;10.55;;;19.30;97.20;;;;;;1714672;28;20222;-74
2022/05/10 07:07:55;;;;;;;10.52;9.82;;;19.40;97.20;;;;;;1714694;28;20551;-75
2022/05/10 07:08:45;;;;;;;10.80;10.00;;;19.40;97.20;;;;;;1714439;28;20202;-75
2022/05/10 07:09:37;;;;;;;10.67;9.67;;;19.50;97.20;;;;;;1714679;28;20205;-74
2022/05/10 07:10:28;;;;;;;11.85;10.85;;;19.50;97.20;;;;;;1714831;28;20529;-75
2022/05/10 07:11:20;;;;;;;11.38;10.45;;;19.50;97.20;;;;;;1714802;28;20202;-75
2022/05/10 07:12:11;;;;;;;11.20;10.40;;;19.60;97.20;;;;;;1714782;28;20220;-75
2022/05/10 07:13:03;;;;;;;11.90;10.82;;;19.60;97.20;;;;;;1714737;28;20202;-75
2022/05/10 07:13:54;;;;;;;11.48;10.48;;;19.70;97.20;;;;;;1714767;28;20205;-75
2022/05/10 07:14:45;;;;;;;10.80;10.00;;;19.70;97.20;;;;;;1714846;28;20202;-75
2022/05/10 07:15:36;;;;;;;11.52;10.63;;;19.80;97.20;;;;;;1714757;28;20244;-75
2022/05/10 07:16:28;;;;;;;11.20;10.20;;;19.80;97.20;;;;;;1715820;28;20237;-75
2022/05/10 07:17:19;;;;;;;10.73;9.88;;;19.80;97.20;;;;;;1721055;28;20225;-75
2022/05/10 07:18:11;;;;;;;10.40;9.60;;;19.90;97.20;;;;;;1721360;28;20201;-75
2022/05/10 07:19:03;;;;;;;10.43;9.52;;;19.90;97.20;;;;;;1721034;28;20299;-75
2022/05/10 07:19:54;;;;;;;10.82;9.93;;;20.00;97.20;;;;;;1721319;28;20209;-75
2022/05/10 07:20:47;;;;;;;10.75;9.85;;;20.00;97.20;;;;;;1721451;28;20661;-75
2022/05/10 07:21:38;;;;;;;9.90;9.20;;;20.00;97.20;;;;;;1721360;28;20291;-75
2022/05/10 07:22:29;;;;;;;9.93;9.13;;;20.00;97.20;;;;;;1721380;28;20201;-75
2022/05/10 07:23:22;;;;;;;10.83;10.07;;;20.00;97.20;;;;;;1721308;28;20197;-75
2022/05/10 07:24:16;;;;;;;11.18;10.07;;;20.00;97.20;;;;;;1721264;28;20201;-75
2022/05/10 07:25:09;;;;;;;10.00;9.30;;;20.10;97.20;;;;;;1721423;28;20631;-75
2022/05/10 07:25:59;;;;;;;11.63;10.63;;;20.10;97.20;;;;;;1721294;28;20558;-75
2022/05/10 07:26:51;;;;;;;10.53;9.73;;;20.20;97.20;;;;;;1721262;28;20231;-75
2022/05/10 07:27:42;;;;;;;10.10;9.38;;;20.20;97.20;;;;;;1721278;28;20232;-75
2022/05/10 07:28:34;;;;;;;10.38;9.65;;;20.20;97.20;;;;;;1720994;28;20204;-75
2022/05/10 07:29:25;;;;;;;10.85;10.00;;;20.30;97.20;;;;;;1721277;28;20693;-75
2022/05/10 07:30:19;;;;;;;9.47;8.67;;;20.30;97.20;;;;;;1721223;28;20699;-75
2022/05/10 07:31:10;;;;;;;9.60;8.90;;;20.30;97.20;;;;;;1721358;28;20932;-75
2022/05/10 07:32:02;;;;;;;10.23;9.43;;;20.30;97.20;;;;;;1721238;28;20665;-75
2022/05/10 07:32:53;;;;;;;10.70;9.90;;;20.30;97.20;;;;;;1721303;28;20444;-75
2022/05/10 07:33:45;;;;;;;10.25;9.35;;;20.40;97.20;;;;;;1721030;28;20553;-75
2022/05/10 07:34:37;;;;;;;10.98;10.10;;;20.40;97.20;;;;;;1721283;28;20236;-75
2022/05/10 07:36:39;;;;;;;9.68;8.68;;;20.40;97.20;;;;;;1721386;28;20199;-75
2022/05/10 07:37:30;;;;;;;10.55;9.75;;;20.40;97.20;;;;;;1721141;28;20213;-75
2022/05/10 07:38:21;;;;;;;10.10;9.02;;;20.40;97.20;;;;;;1720915;28;20205;-75
2022/05/10 07:39:15;;;;;;;10.90;10.10;;;20.40;97.20;;;;;;1721211;28;20212;-75
2022/05/10 07:40:07;;;;;;;10.45;9.43;;;20.50;97.20;;;;;;1721187;28;20646;-75
2022/05/10 07:40:59;;;;;;;10.48;9.60;;;20.50;97.20;;;;;;1721205;28;20259;-75
2022/05/10 07:41:54;;;;;;;10.90;10.10;;;20.50;97.20;;;;;;1721248;28;20640;-75
2022/05/10 07:42:45;;;;;;;10.48;9.52;;;20.50;97.20;;;;;;1721226;28;20200;-75
2022/05/10 07:43:38;;;;;;;10.90;10.00;;;20.50;97.20;;;;;;1721223;28;20252;-75
2022/05/10 07:44:30;;;;;;;9.98;9.18;;;20.60;97.20;;;;;;1721253;28;20208;-75
2022/05/10 07:45:20;;;;;;;10.20;9.50;;;20.60;97.20;;;;;;1721171;28;20263;-75
2022/05/10 07:46:12;;;;;;;9.97;9.17;;;20.70;97.20;;;;;;1721241;28;20234;-75
2022/05/10 07:47:04;;;;;;;10.88;9.80;;;20.70;97.20;;;;;;1721136;28;20248;-75
2022/05/10 07:47:55;;;;;;;9.35;8.45;;;20.70;97.20;;;;;;1721222;28;20705;-75
2022/05/10 07:48:47;;;;;;;10.37;9.60;;;20.80;97.20;;;;;;1720941;28;20573;-75
2022/05/10 07:49:39;;;;;;;10.27;9.55;;;20.80;97.20;;;;;;1721074;28;20239;-75
2022/05/10 07:50:30;;;;;;;11.23;10.32;;;20.90;97.20;;;;;;1720908;28;20229;-75
2022/05/10 07:51:23;;;;;;;10.07;9.23;;;20.90;97.20;;;;;;1721071;28;20201;-75
2022/05/10 07:52:14;;;;;;;9.88;9.07;;;20.90;97.20;;;;;;1721220;28;20205;-75
2022/05/10 07:53:07;;;;;;;10.50;9.50;;;20.90;97.20;;;;;;1721137;28;20228;-75
2022/05/10 07:53:58;;;;;;;10.10;9.30;;;20.90;97.20;;;;;;1721119;28;20633;-75
2022/05/10 07:54:50;;;;;;;10.55;9.75;;;20.90;97.20;;;;;;1721217;28;20201;-75
2022/05/10 07:55:41;;;;;;;10.43;9.63;;;21.00;97.20;;;;;;1721118;28;20280;-75
2022/05/10 07:56:32;;;;;;;9.80;8.90;;;21.00;97.20;;;;;;1720626;28;20209;-75
2022/05/10 07:57:24;;;;;;;10.20;9.40;;;21.10;97.20;;;;;;1720890;28;20232;-75
2022/05/10 07:58:15;;;;;;;11.45;10.45;;;21.10;97.20;;;;;;1720858;28;20213;-75
2022/05/10 07:59:07;;;;;;;10.63;9.83;;;21.20;97.20;;;;;;1721307;28;20208;-75
2022/05/10 07:59:57;;;;;;;9.57;8.77;;;21.30;97.20;;;;;;1721076;28;20661;-75
2022/05/10 08:00:49;;;;;;;10.33;9.43;;;21.30;97.20;;;;;;1720916;28;20571;-75
2022/05/10 08:01:40;;;;;;;10.15;9.35;;;21.40;97.20;;;;;;1721106;28;20251;-75
2022/05/10 08:02:31;;;;;;;9.80;9.10;;;21.40;97.20;;;;;;1720896;28;20224;-75
2022/05/10 08:03:24;;;;;;;9.80;8.90;;;21.50;97.20;;;;;;1721060;28;20209;-75
2022/05/10 08:04:16;;;;;;;10.50;9.60;;;21.60;97.20;;;;;;1721115;28;20233;-75
2022/05/10 08:05:09;;;;;;;9.57;8.88;;;21.70;97.20;;;;;;1721058;28;20652;-75
2022/05/10 08:06:02;;;;;;;10.35;9.30;;;21.70;97.20;;;;;;1720988;28;20284;-75
2022/05/10 08:06:53;;;;;;;9.30;8.55;;;21.80;97.20;;;;;;1721032;28;20205;-75
2022/05/10 08:07:44;;;;;;;9.87;9.07;;;21.80;97.20;;;;;;1720835;28;20197;-75
2022/05/10 08:08:36;;;;;;;12.27;9.18;;;21.90;97.20;;;;;;1720573;28;20239;-75
2022/05/10 08:09:28;;;;;;;10.43;9.50;;;22.00;97.20;;;;;;1720988;28;20205;-75
2022/05/10 08:10:19;;;;;;;10.30;9.60;;;22.00;97.20;;;;;;1720935;28;20240;-75
2022/05/10 08:11:11;;;;;;;9.35;8.65;;;22.10;97.20;;;;;;1721035;28;20205;-75
2022/05/10 08:12:03;;;;;;;10.95;10.05;;;22.10;97.20;;;;;;1720973;28;20232;-75
2022/05/10 08:12:54;;;;;;;9.57;8.88;;;22.20;97.20;;;;;;1721060;28;20201;-75
2022/05/10 08:13:46;;;;;;;9.80;9.10;;;22.30;97.20;;;;;;1720983;28;20201;-75
2022/05/10 08:14:37;;;;;;;10.35;9.55;;;22.40;97.20;;;;;;1720906;28;20599;-75
2022/05/10 08:15:28;;;;;;;10.65;9.75;;;22.40;97.20;;;;;;1720941;28;20205;-75
2022/05/10 08:16:20;;;;;;;9.50;8.70;;;22.50;97.20;;;;;;1720971;28;20211;-75
2022/05/10 08:17:11;;;;;;;10.23;9.43;;;22.60;97.20;;;;;;1720654;28;20495;-75
2022/05/10 08:18:02;;;;;;;10.20;9.20;;;22.70;97.20;;;;;;1720994;28;20280;-75
2022/05/10 08:18:54;;;;;;;9.40;8.70;;;22.80;97.20;;;;;;1720654;28;20208;-75
2022/05/10 08:19:45;;;;;;;9.80;8.98;;;22.80;97.20;;;;;;1720855;28;20201;-75
2022/05/10 08:20:39;;;;;;;10.83;9.90;;;22.90;97.20;;;;;;1720898;28;20203;-75
2022/05/10 08:21:31;;;;;;;9.93;9.13;;;22.80;97.20;;;;;;1720955;28;20348;-75
2022/05/10 08:22:22;;;;;;;10.88;9.88;;;22.80;97.20;;;;;;1720927;28;20669;-75
2022/05/10 08:23:17;;;;;;;9.85;9.05;;;22.80;97.20;;;;;;1720975;28;20647;-75
2022/05/10 08:24:09;;;;;;;9.95;9.15;;;22.80;97.20;;;;;;1720522;28;20206;-75
2022/05/10 08:25:00;;;;;;;8.65;8.05;;;22.80;97.20;;;;;;1720890;28;20220;-75
2022/05/10 08:25:54;;;;;;;10.00;9.10;;;22.80;97.20;;;;;;1720919;28;20197;-75
2022/05/10 08:26:45;;;;;;;9.00;8.30;;;22.80;97.20;;;;;;1720835;28;20205;-75
2022/05/10 08:27:36;;;;;;;10.10;8.57;;;22.80;97.20;;;;;;1720836;28;20197;-75
2022/05/10 08:28:29;;;;;;;9.30;8.40;;;22.80;97.20;;;;;;1720632;28;20201;-75
2022/05/10 08:29:20;;;;;;;9.38;8.68;;;22.80;97.20;;;;;;1720870;28;20231;-75
2022/05/10 08:30:13;;;;;;;8.90;8.30;;;22.80;97.20;;;;;;1720901;28;20208;-75
2022/05/10 08:31:05;;;;;;;9.65;8.80;;;22.80;97.20;;;;;;1720983;28;20229;-75
2022/05/10 08:31:58;;;;;;;9.05;8.35;;;22.90;97.20;;;;;;1720986;28;20197;-75
2022/05/10 08:32:49;;;;;;;9.32;8.48;;;22.90;97.20;;;;;;1720881;28;20301;-75
2022/05/10 08:33:43;;;;;;;9.23;8.60;;;23.00;97.20;;;;;;1720867;28;20201;-75
2022/05/10 08:34:35;;;;;;;10.60;9.60;;;23.00;97.20;;;;;;1720886;28;20237;-75
2022/05/10 08:35:26;;;;;;;10.10;9.30;;;23.10;97.20;;;;;;1720902;28;20207;-75
2022/05/10 08:36:19;;;;;;;9.73;8.93;;;23.20;97.20;;;;;;1720841;28;20636;-75
2022/05/10 08:37:10;;;;;;;9.77;9.00;;;23.20;97.20;;;;;;1720670;28;20701;-75
2022/05/10 08:38:02;;;;;;;9.80;9.00;;;23.30;97.20;;;;;;1720821;28;20662;-75
2022/05/10 08:38:54;;;;;;;8.65;8.05;;;23.30;97.20;;;;;;1720507;28;20205;-75
2022/05/10 08:39:45;;;;;;;9.20;8.48;;;23.40;97.20;;;;;;1720727;28;20201;-75
2022/05/10 08:40:41;;;;;;;8.90;8.07;;;23.40;97.20;;;;;;1720792;28;20202;-75
2022/05/10 08:41:42;;;;;;;9.45;8.75;;;23.40;97.20;;;;;;1719701;28;20225;-75
2022/05/10 08:42:39;;;;;;;9.05;8.35;;;23.50;97.20;;;;;;1720876;28;20216;-75
2022/05/10 08:43:34;;;;;;;10.38;9.57;;;23.50;97.20;;;;;;1720925;28;20248;-75
2022/05/10 08:44:29;;;;;;;9.20;8.50;;;23.50;97.20;;;;;;1720764;28;20216;-75
2022/05/10 08:45:24;;;;;;;9.63;8.85;;;23.60;97.20;;;;;;1720805;28;20205;-75
2022/05/10 08:46:17;;;;;;;9.88;8.98;;;23.60;97.20;;;;;;1720756;28;20201;-75
2022/05/10 08:47:12;;;;;;;9.18;8.48;;;23.60;97.20;;;;;;1720719;28;20236;-75
2022/05/10 08:48:04;;;;;;;12.07;11.07;;;23.60;97.20;;;;;;1720796;28;20197;-75
2022/05/10 08:49:12;;;;;;;12.25;11.30;;;23.70;97.20;;;;;;1720546;28;20228;-76
2022/05/10 08:50:07;;;;;;;9.50;8.80;;;23.70;97.20;;;;;;1720774;28;20232;-75
2022/05/10 08:50:59;;;;;;;8.40;7.70;;;23.80;97.20;;;;;;1720733;28;20201;-75
2022/05/10 08:51:53;;;;;;;8.57;7.88;;;23.80;97.20;;;;;;1720759;28;20695;-75
2022/05/10 08:52:45;;;;;;;8.80;8.20;;;23.90;97.20;;;;;;1720729;28;20248;-76
2022/05/10 08:53:37;;;;;;;10.05;9.27;;;23.90;97.20;;;;;;1720783;28;20228;-75
2022/05/10 08:54:29;;;;;;;9.90;9.10;;;24.00;97.20;;;;;;1720699;28;20209;-75
2022/05/10 08:55:26;;;;;;;10.48;8.65;;;24.10;97.20;;;;;;1720667;28;20243;-75
2022/05/10 08:56:22;;;;;;;9.65;8.95;;;24.10;97.20;;;;;;1720680;28;20253;-75
2022/05/10 08:57:20;;;;;;;9.07;8.30;;;24.10;97.20;;;;;;1720504;28;20224;-75
2022/05/10 08:58:24;;;;;;;8.95;8.30;;;24.10;97.20;;;;;;1720667;28;20296;-74
2022/05/10 08:59:28;;;;;;;8.50;7.93;;;24.10;97.20;;;;;;1720747;28;20591;-75
2022/05/10 09:00:29;;;;;;;8.65;7.85;;;24.10;97.20;;;;;;1720446;28;20213;-75
2022/05/10 09:01:23;;;;;;;8.00;7.30;;;24.10;97.20;;;;;;1720705;28;20202;-76
2022/05/10 09:02:17;;;;;;;8.23;7.63;;;24.10;97.20;;;;;;1720448;28;20204;-75
2022/05/10 09:03:24;;;;;;;8.43;7.72;;;24.20;97.20;;;;;;1720700;28;20708;-75
2022/05/10 09:04:30;;;;;;;7.93;7.35;;;24.20;97.20;;;;;;1720437;28;20216;-75
2022/05/10 09:05:27;;;;;;;7.75;7.25;;;24.20;97.20;;;;;;1720718;28;20205;-75
2022/05/10 09:06:27;;;;;;;8.30;7.60;;;24.20;97.20;;;;;;1720808;28;20644;-75
2022/05/10 09:07:32;;;;;;;7.97;7.22;;;24.30;97.20;;;;;;1720718;28;20217;-76
2022/05/10 09:08:31;;;;;;;8.60;7.80;;;24.40;97.20;;;;;;1720258;28;20217;-75
2022/05/10 09:09:27;;;;;;;7.70;7.10;;;24.50;97.20;;;;;;1720770;28;20280;-75
2022/05/10 09:10:23;;;;;;;7.50;7.00;;;24.60;97.20;;;;;;1720681;28;20213;-75
2022/05/10 09:11:16;;;;;;;7.70;7.10;;;24.70;97.20;;;;;;1720799;28;20424;-75
2022/05/10 09:12:13;;;;;;;8.20;7.60;;;24.70;97.20;;;;;;1719904;28;20264;-75
2022/05/10 09:13:08;;;;;;;7.22;6.65;;;24.80;97.20;;;;;;1720258;28;20201;-75
2022/05/10 09:14:00;;;;;;;8.38;7.68;;;24.90;97.20;;;;;;1720490;28;20205;-76
2022/05/10 09:14:56;;;;;;;8.50;7.80;;;24.90;97.20;;;;;;1721357;28;20252;-75
2022/05/10 09:15:54;;;;;;;7.85;7.25;;;24.90;97.20;;;;;;1720721;28;20665;-75
2022/05/10 09:16:45;;;;;;;7.80;7.20;;;24.90;97.20;;;;;;1720531;28;20214;-76
2022/05/10 09:17:38;;;;;;;7.60;7.10;;;24.90;97.20;;;;;;1720602;28;20201;-75
2022/05/10 09:18:34;;;;;;;7.70;7.20;;;24.90;97.20;;;;;;1720303;28;20209;-75
2022/05/10 09:19:34;;;;;;;7.25;6.75;;;24.90;97.20;;;;;;1720622;28;20216;-75
2022/05/10 09:20:25;;;;;;;8.30;7.63;;;25.00;97.20;;;;;;1720633;28;20549;-75
2022/05/10 09:21:22;;;;;;;7.88;7.07;;;25.10;97.20;;;;;;1720673;28;20239;-75
2022/05/10 09:22:34;;;;;;;7.20;6.70;;;25.20;97.20;;;;;;1720690;28;20607;-75
2022/05/10 09:23:35;;;;;;;6.50;5.97;;;25.20;97.20;;;;;;1720605;28;20229;-75
2022/05/10 09:24:32;;;;;;;7.65;7.05;;;25.40;97.20;;;;;;1720671;28;20665;-75
2022/05/10 09:25:31;;;;;;;7.40;6.90;;;25.50;97.20;;;;;;1720715;28;20209;-75
2022/05/10 09:26:25;;;;;;;7.60;7.00;;;25.60;97.20;;;;;;1720661;28;20208;-76
2022/05/10 09:27:18;;;;;;;6.78;6.28;;;25.60;97.20;;;;;;1720558;28;20236;-75
2022/05/10 09:28:17;;;;;;;7.05;6.55;;;25.70;97.20;;;;;;1720663;28;20752;-75
2022/05/10 09:29:14;;;;;;;6.70;6.20;;;25.80;97.20;;;;;;1720354;28;20234;-75
2022/05/10 09:30:05;;;;;;;6.72;6.03;;;25.90;97.20;;;;;;1720233;28;20213;-76
2022/05/10 09:34:59;;;;;;;6.75;6.30;;;26.20;97.20;;;;;;1720643;28;20648;-75
2022/05/10 09:35:51;;;;;;;7.05;6.30;;;26.20;97.20;;;;;;1720573;28;20228;-76
2022/05/10 09:36:43;;;;;;;5.68;5.28;;;26.30;97.20;;;;;;1718905;28;20205;-75